Terminal Aerodrome Forecast
Issued by NWS

Home | Current Version | Previous Version | Text Only | Print | Product List | Glossary On
Versions: 1 2 3 4 5 6 7 8 9 10 11 12
319
FTUS43 KAPX 291723
TAFPLN
TAF
KPLN 291723Z 2918/3018 05008KT P6SM FEW030 FEW120
     FM292300 08005KT P6SM SKC
     FM300600 00000KT P6SM FEW250
     FM301400 08006KT P6SM FEW250=

USA.gov is the U.S. government's official web portal to all federal, state and local government web resources and services.